Terminal Aerodrome Forecast
Issued by NWS

Home | Current Version | Previous Version | Text Only | Print | Product List | Glossary On
Versions: 1 2 3 4 5 6 7 8 9 10 11 12 13 14
192
FTUS43 KICT 250312 AAA
TAFHUT
TAF AMD
KHUT 250312Z 2503/2524 15007KT P6SM SCT008 BKN012
      TEMPO 2503/2507 BKN008
     FM250700 24007KT P6SM VCSH SCT015 BKN040
      TEMPO 2508/2511 TSRA SCT008 BKN015CB
     FM251100 35020G30KT P6SM SCT015 BKN250
     FM251500 35018G28KT P6SM SKC=

USA.gov is the U.S. government's official web portal to all federal, state and local government web resources and services.